Algona, Washington
Current Conditions -  °F | °C
As of 4:53 PM on Friday 24 Oct 2014 (Local Time) from KSEA Reporting Station
Overcast Overcast  
Wind Chill: 56°   Ceiling: 13000
Heat Index: 56°   Visibility: 10mi
Dew Point: 46°   Wind: 13mph
Humidity: 69%   Direction: 10°N
Pressure: 29.89"   Gusts: NA
Location:  47.31°N, 122.266°W
Report Text: KSEA 242353Z 01011KT 10SM OVC130 13/08 A2989 RMK AO2 SLP128 T01330078 10144 20117 58027
Loading
Personal Weather Stations






























Interactive Weather Map New forecast layout! Learn more

10-Day Weather Forecast

Advertisements
Track Severe Weather on mobile